createdAt,value
2022-12-14T00:01:30.579Z,-6.48
2022-12-14T00:04:02.385Z,-6.48
2022-12-14T00:06:33.895Z,-6.48
2022-12-14T00:09:05.876Z,-6.54
2022-12-14T00:11:37.369Z,-6.54
2022-12-14T00:14:09.357Z,-6.56
2022-12-14T00:16:40.874Z,-6.59
2022-12-14T00:19:12.778Z,-6.63
2022-12-14T00:21:44.295Z,-6.66
2022-12-14T00:24:16.141Z,-6.66
2022-12-14T00:26:47.710Z,-6.71
2022-12-14T00:29:19.678Z,-6.73
2022-12-14T00:31:51.369Z,-6.77
2022-12-14T00:34:23.372Z,-6.79
2022-12-14T00:36:55.580Z,-6.82
2022-12-14T00:39:27.411Z,-6.85
2022-12-14T00:41:58.951Z,-6.88
2022-12-14T00:44:31.668Z,-6.88
2022-12-14T00:47:03.205Z,-6.94
2022-12-14T00:49:35.082Z,-6.93
2022-12-14T00:52:06.612Z,-6.99
2022-12-14T00:54:38.430Z,-6.98
2022-12-14T00:57:10.332Z,-7.00
2022-12-14T00:59:42.210Z,-7.00
2022-12-14T01:02:13.837Z,-7.05
2022-12-14T01:04:45.803Z,-7.07
2022-12-14T01:07:17.307Z,-7.08
2022-12-14T01:09:49.164Z,-7.11
2022-12-14T01:12:20.658Z,-7.18
2022-12-14T01:14:52.601Z,-7.19
2022-12-14T01:17:24.085Z,-7.22
2022-12-14T01:19:55.945Z,-7.22
2022-12-14T01:22:27.436Z,-7.22
2022-12-14T01:24:59.263Z,-7.23
2022-12-14T01:27:30.780Z,-7.23
2022-12-14T01:30:02.595Z,-7.26
2022-12-14T01:32:34.103Z,-7.27
2022-12-14T01:35:05.982Z,-7.32
2022-12-14T01:37:37.466Z,-7.29
2022-12-14T01:40:09.329Z,-7.28
2022-12-14T01:42:40.854Z,-7.32
2022-12-14T01:45:12.843Z,-7.35
2022-12-14T01:47:44.390Z,-7.38
2022-12-14T01:50:16.264Z,-7.36
2022-12-14T01:52:47.814Z,-7.36
2022-12-14T01:55:19.780Z,-7.40
2022-12-14T01:57:51.289Z,-7.42
2022-12-14T02:00:23.545Z,-7.43
2022-12-14T02:02:55.135Z,-7.44
2022-12-14T02:05:27.063Z,-7.50
2022-12-14T02:07:58.578Z,-7.52
2022-12-14T02:10:30.079Z,-7.52
2022-12-14T02:13:01.576Z,-7.51
2022-12-14T02:15:33.436Z,-7.58
2022-12-14T02:18:04.995Z,-7.57
2022-12-14T02:20:36.664Z,-7.56
2022-12-14T02:23:08.162Z,-7.59
2022-12-14T02:25:40.021Z,-7.63
2022-12-14T02:28:11.513Z,-7.65
2022-12-14T02:30:43.205Z,-7.64
2022-12-14T02:33:14.709Z,-7.70
2022-12-14T02:35:46.521Z,-7.71
2022-12-14T02:38:18.054Z,-7.73
2022-12-14T02:40:49.849Z,-7.70
2022-12-14T02:43:21.393Z,-7.70
2022-12-14T02:45:53.340Z,-7.72
2022-12-14T02:48:24.894Z,-7.72
2022-12-14T02:50:56.720Z,-7.68
2022-12-14T02:53:28.505Z,-7.70
2022-12-14T02:56:00.597Z,-7.74
2022-12-14T02:58:32.092Z,-7.79
2022-12-14T03:01:04.003Z,-7.76
2022-12-14T03:03:35.563Z,-7.79
2022-12-14T03:06:15.026Z,-7.78
2022-12-14T03:08:46.961Z,-7.80
2022-12-14T03:11:19.871Z,-7.83
2022-12-14T03:13:51.430Z,-7.86
2022-12-14T03:16:23.271Z,-7.87
2022-12-14T03:18:54.838Z,-7.85
2022-12-14T03:21:26.685Z,-7.89
2022-12-14T03:23:58.203Z,-7.85
2022-12-14T03:26:29.715Z,-7.88
2022-12-14T03:29:01.228Z,-7.89
2022-12-14T03:31:33.201Z,-7.92
2022-12-14T03:34:04.738Z,-7.92
2022-12-14T03:36:36.629Z,-7.88
2022-12-14T03:39:08.123Z,-7.90
2022-12-14T03:41:39.947Z,-7.91
2022-12-14T03:44:11.458Z,-7.87
2022-12-14T03:46:43.344Z,-7.90
2022-12-14T03:49:14.882Z,-7.92
2022-12-14T03:51:46.888Z,-7.93
2022-12-14T03:54:18.367Z,-7.93
2022-12-14T03:56:53.208Z,-7.93
2022-12-14T03:59:24.987Z,-7.94
2022-12-14T04:01:56.939Z,-7.96
2022-12-14T04:04:28.530Z,-7.97
2022-12-14T04:07:00.365Z,-7.96
2022-12-14T04:09:31.883Z,-7.96
2022-12-14T04:12:22.742Z,-7.97
2022-12-14T04:15:13.141Z,-8.02
2022-12-14T04:18:03.230Z,-8.01
2022-12-14T04:20:34.763Z,-8.05
2022-12-14T04:23:06.270Z,-8.07
2022-12-14T04:25:56.829Z,-8.06
2022-12-14T04:28:47.069Z,-8.05
2022-12-14T04:31:18.634Z,-8.07
2022-12-14T04:33:50.267Z,-8.16
2022-12-14T04:36:22.122Z,-8.14
2022-12-14T04:38:53.630Z,-8.14
2022-12-14T04:41:25.545Z,-8.10
2022-12-14T04:43:57.304Z,-8.11
2022-12-14T04:46:29.301Z,-8.08
2022-12-14T04:49:00.806Z,-8.10
2022-12-14T04:51:32.800Z,-8.07
2022-12-14T04:54:04.312Z,-8.14
2022-12-14T04:56:36.122Z,-8.15
2022-12-14T04:59:07.615Z,-8.20
2022-12-14T05:01:39.542Z,-8.22
2022-12-14T05:04:12.944Z,-8.23
2022-12-14T05:06:45.121Z,-8.21
2022-12-14T05:09:16.643Z,-8.26
2022-12-14T05:11:55.677Z,-8.28
2022-12-14T05:14:27.187Z,-8.28
2022-12-14T05:17:02.333Z,-8.22
2022-12-14T05:19:37.003Z,-8.26
2022-12-14T05:22:08.965Z,-8.27
2022-12-14T05:24:40.445Z,-8.26
2022-12-14T05:27:12.261Z,-8.27
2022-12-14T05:29:43.753Z,-8.27
2022-12-14T05:32:15.697Z,-8.31
2022-12-14T05:34:47.234Z,-8.31
2022-12-14T05:37:19.014Z,-8.26
2022-12-14T05:39:50.526Z,-8.29
2022-12-14T05:42:22.448Z,-8.28
2022-12-14T05:44:53.976Z,-8.32
2022-12-14T05:47:25.811Z,-8.29
2022-12-14T05:49:57.305Z,-8.30
2022-12-14T05:52:29.113Z,-8.32
2022-12-14T05:55:04.170Z,-8.38
2022-12-14T05:57:36.683Z,-8.33
2022-12-14T06:00:09.343Z,-8.35
2022-12-14T06:02:41.162Z,-8.36
2022-12-14T06:05:12.675Z,-8.33
2022-12-14T06:07:44.529Z,-8.32
2022-12-14T06:10:16.019Z,-8.36
2022-12-14T06:12:47.880Z,-8.38
2022-12-14T06:15:19.441Z,-8.41
2022-12-14T06:17:51.297Z,-8.46
2022-12-14T06:20:22.785Z,-8.45
2022-12-14T06:22:54.605Z,-8.52
2022-12-14T06:25:26.273Z,-8.48
2022-12-14T06:27:58.073Z,-8.48
2022-12-14T06:30:29.758Z,-8.45
2022-12-14T06:33:01.571Z,-8.49
2022-12-14T06:35:33.061Z,-8.50
2022-12-14T06:38:04.924Z,-8.48
2022-12-14T06:40:36.464Z,-8.47
2022-12-14T06:43:08.268Z,-8.47
2022-12-14T06:45:39.820Z,-8.54
2022-12-14T06:48:11.330Z,-8.50
2022-12-14T06:50:43.152Z,-8.53
2022-12-14T06:53:14.664Z,-8.58
2022-12-14T06:55:46.175Z,-8.55
2022-12-14T06:58:20.910Z,-8.54
2022-12-14T07:00:52.730Z,-8.57
2022-12-14T07:03:24.267Z,-8.59
2022-12-14T07:05:56.130Z,-8.56
2022-12-14T07:08:27.664Z,-8.51
2022-12-14T07:11:02.384Z,-8.47
2022-12-14T07:13:34.199Z,-8.46
2022-12-14T07:16:05.829Z,-8.46
2022-12-14T07:18:37.438Z,-8.43
2022-12-14T07:21:11.811Z,-8.38
2022-12-14T07:23:43.366Z,-8.31
2022-12-14T07:26:15.180Z,-8.28
2022-12-14T07:28:46.718Z,-8.27
2022-12-14T07:31:18.281Z,-8.24
2022-12-14T07:33:49.823Z,-8.27
2022-12-14T07:36:21.330Z,-8.26
2022-12-14T07:38:52.836Z,-8.23
2022-12-14T07:41:24.388Z,-8.28
2022-12-14T07:43:55.864Z,-8.23
2022-12-14T07:46:27.799Z,-8.19
2022-12-14T07:48:59.358Z,-8.16
2022-12-14T07:51:30.991Z,-8.05
2022-12-14T07:54:02.500Z,-7.99
2022-12-14T07:56:34.411Z,-7.90
2022-12-14T07:59:06.725Z,-7.86
2022-12-14T08:01:38.325Z,-7.82
2022-12-14T08:04:09.975Z,-7.74
2022-12-14T08:06:41.608Z,-7.63
2022-12-14T08:09:13.130Z,-7.50
2022-12-14T08:11:45.007Z,-7.44
2022-12-14T08:14:19.650Z,-7.41
2022-12-14T08:16:51.326Z,-7.34
2022-12-14T08:19:22.904Z,-7.35
2022-12-14T08:21:54.403Z,-7.29
2022-12-14T08:24:25.909Z,-7.18
2022-12-14T08:26:57.471Z,-7.11
2022-12-14T08:29:28.974Z,-7.03
2022-12-14T08:32:00.516Z,-7.01
2022-12-14T08:34:32.033Z,-6.91
2022-12-14T08:37:03.834Z,-6.73
2022-12-14T08:39:35.389Z,-6.62
2022-12-14T08:42:06.949Z,-6.52
2022-12-14T08:44:38.443Z,-6.46
2022-12-14T08:47:09.976Z,-6.22
2022-12-14T08:49:41.512Z,-6.06
2022-12-14T08:52:13.336Z,-6.19
2022-12-14T08:54:44.828Z,-6.13
2022-12-14T08:57:16.361Z,-6.09
2022-12-14T09:00:03.488Z,-6.10
2022-12-14T09:02:35.525Z,-6.08
2022-12-14T09:05:07.109Z,-6.01
2022-12-14T09:07:38.675Z,-6.03
2022-12-14T09:10:10.941Z,-5.95
2022-12-14T09:12:42.766Z,-7.64
2022-12-14T09:15:14.282Z,-5.77
2022-12-14T09:17:46.080Z,-5.80
2022-12-14T09:20:18.909Z,-5.76
2022-12-14T09:22:50.883Z,-5.49
2022-12-14T09:25:22.396Z,-5.45
2022-12-14T09:27:54.262Z,-5.41
2022-12-14T09:30:26.993Z,-5.48
2022-12-14T09:32:58.710Z,-5.27
2022-12-14T09:35:30.213Z,-5.05
2022-12-14T09:38:01.735Z,-4.89
2022-12-14T09:40:33.254Z,-4.61
2022-12-14T09:43:04.945Z,-4.14
2022-12-14T09:45:36.543Z,-3.83
2022-12-14T09:48:08.157Z,-4.14
2022-12-14T09:50:39.650Z,-4.25
2022-12-14T09:53:11.365Z,-4.42
2022-12-14T09:55:42.900Z,-4.61
2022-12-14T09:58:14.433Z,-4.79
2022-12-14T10:00:52.980Z,-4.82
2022-12-14T10:03:25.173Z,-4.82
2022-12-14T10:05:56.790Z,-4.88
2022-12-14T10:08:28.949Z,-4.73
2022-12-14T10:11:00.970Z,-4.57
2022-12-14T10:13:33.200Z,-4.52
2022-12-14T10:16:04.996Z,-4.46
2022-12-14T10:21:28.795Z,-4.22
2022-12-14T10:24:00.310Z,-5.82
2022-12-14T10:26:32.556Z,-4.12
2022-12-14T10:29:05.058Z,-4.07
2022-12-14T10:31:36.620Z,-4.09
2022-12-14T10:34:12.211Z,-3.96
2022-12-14T10:36:43.978Z,-5.55
2022-12-14T10:39:15.511Z,-3.90
2022-12-14T10:41:49.504Z,-3.79
2022-12-14T10:44:21.366Z,-3.70
2022-12-14T10:46:53.014Z,-3.51
2022-12-14T10:49:24.542Z,-3.57
2022-12-14T10:51:56.362Z,-3.59
2022-12-14T10:54:27.972Z,-3.52
2022-12-14T10:56:59.587Z,-3.58
2022-12-14T10:59:38.865Z,-3.63
2022-12-14T11:02:14.451Z,-3.61
2022-12-14T11:04:46.156Z,-3.58
2022-12-14T11:07:18.357Z,-3.61
2022-12-14T11:09:49.850Z,-3.70
2022-12-14T11:12:21.482Z,-3.59
2022-12-14T11:14:53.085Z,-3.53
2022-12-14T11:17:24.615Z,-3.40
2022-12-14T11:19:56.166Z,-3.35
2022-12-14T11:22:27.638Z,-3.34
2022-12-14T11:24:59.177Z,-3.25
2022-12-14T11:27:30.987Z,-3.26
2022-12-14T11:30:03.020Z,-3.02
2022-12-14T11:32:34.859Z,-3.20
2022-12-14T11:35:06.380Z,-2.96
2022-12-14T11:37:38.464Z,-2.72
2022-12-14T11:40:10.055Z,-2.84
2022-12-14T11:43:03.495Z,-2.93
2022-12-14T11:45:35.152Z,-2.72
2022-12-14T11:48:06.774Z,-2.74
2022-12-14T11:50:38.238Z,-2.73
2022-12-14T11:53:11.657Z,-2.80
2022-12-14T11:55:52.285Z,-2.66
2022-12-14T11:58:28.777Z,-2.78
2022-12-14T12:01:00.521Z,-2.72
2022-12-14T12:03:32.404Z,-2.67
2022-12-14T12:06:03.939Z,-2.59
2022-12-14T12:08:35.561Z,-2.32
2022-12-14T12:11:09.767Z,-2.26
2022-12-14T12:13:41.580Z,-2.41
2022-12-14T12:16:13.567Z,-2.41
2022-12-14T12:18:46.607Z,-2.41
2022-12-14T12:21:18.440Z,-2.58
2022-12-14T12:23:49.922Z,-2.63
2022-12-14T12:26:21.414Z,-2.67
2022-12-14T12:28:52.995Z,-2.60
2022-12-14T12:31:24.541Z,-2.66
2022-12-14T12:33:56.467Z,-2.60
2022-12-14T12:36:28.154Z,-2.66
2022-12-14T12:38:59.637Z,-2.78
2022-12-14T12:41:31.179Z,-2.83
2022-12-14T12:44:02.661Z,-2.91
2022-12-14T12:46:35.917Z,-3.20
2022-12-14T12:49:15.893Z,-3.31
2022-12-14T12:51:47.399Z,-3.33
2022-12-14T12:54:19.155Z,-3.43
2022-12-14T12:56:53.737Z,-3.55
2022-12-14T12:59:28.357Z,-3.53
2022-12-14T13:02:00.072Z,-3.52
2022-12-14T13:04:33.395Z,-3.68
2022-12-14T13:07:18.208Z,-3.72
2022-12-14T13:09:50.081Z,-3.77
2022-12-14T13:12:21.529Z,-3.85
2022-12-14T13:14:53.130Z,-3.90
2022-12-14T13:17:24.841Z,-3.96
2022-12-14T13:19:56.588Z,-3.97
2022-12-14T13:22:28.354Z,-3.98
2022-12-14T13:25:00.418Z,-4.03
2022-12-14T13:27:32.080Z,-4.13
2022-12-14T13:33:07.231Z,-4.17
2022-12-14T13:35:38.823Z,-4.19
2022-12-14T13:38:10.337Z,-4.23
2022-12-14T13:40:41.842Z,-4.24
2022-12-14T13:43:13.800Z,-4.28
2022-12-14T13:45:45.873Z,-4.24
2022-12-14T13:48:21.397Z,-4.23
2022-12-14T13:51:01.092Z,-4.25
2022-12-14T13:53:33.920Z,-4.29
2022-12-14T13:56:05.664Z,-4.35
2022-12-14T13:58:37.483Z,-4.35
2022-12-14T14:01:09.150Z,-4.37
2022-12-14T14:03:41.449Z,-4.48
2022-12-14T14:06:13.039Z,-4.53
2022-12-14T14:08:45.497Z,-4.58
2022-12-14T14:11:46.809Z,-4.58
2022-12-14T14:14:08.704Z,-4.61
2022-12-14T14:16:40.280Z,-4.64
2022-12-14T14:19:12.305Z,-4.66
2022-12-14T14:22:21.797Z,-4.67
2022-12-14T14:24:37.713Z,-4.71
2022-12-14T14:27:10.570Z,-4.77
2022-12-14T14:29:44.757Z,-4.78
2022-12-14T14:32:54.050Z,-4.81
2022-12-14T14:35:25.828Z,-4.87
2022-12-14T14:37:58.238Z,-4.87
2022-12-14T14:40:58.251Z,-4.96
2022-12-14T14:43:41.950Z,-5.00
2022-12-14T14:46:20.881Z,-5.04
2022-12-14T14:48:54.450Z,-5.09
2022-12-14T14:51:26.433Z,-5.12
2022-12-14T14:54:04.555Z,-5.17
2022-12-14T14:56:36.175Z,-5.16
2022-12-14T14:59:08.013Z,-5.16
2022-12-14T15:02:03.085Z,-5.19
2022-12-14T15:04:34.679Z,-5.24
2022-12-14T15:07:06.332Z,-5.25
2022-12-14T15:09:37.810Z,-5.26
2022-12-14T15:12:09.277Z,-5.30
2022-12-14T15:14:46.602Z,-5.25
2022-12-14T15:17:20.092Z,-5.32
2022-12-14T15:19:51.943Z,-5.37
2022-12-14T15:22:23.411Z,-5.39
2022-12-14T15:24:55.239Z,-5.46
2022-12-14T15:27:27.321Z,-5.47
2022-12-14T15:29:59.405Z,-5.48
2022-12-14T15:32:31.654Z,-5.52
2022-12-14T15:35:03.680Z,-5.56
2022-12-14T15:37:36.433Z,-5.60
2022-12-14T15:40:08.160Z,-5.64
2022-12-14T15:42:39.636Z,-5.69
2022-12-14T15:45:11.451Z,-5.68
2022-12-14T15:47:42.919Z,-5.71
2022-12-14T15:50:20.848Z,-5.71
2022-12-14T15:52:52.318Z,-5.72
2022-12-14T15:55:23.873Z,-5.75
2022-12-14T15:57:55.473Z,-5.73
2022-12-14T16:00:27.011Z,-5.73
2022-12-14T16:02:58.546Z,-5.74
2022-12-14T16:05:30.395Z,-5.77
2022-12-14T16:08:02.494Z,-5.79
2022-12-14T16:10:34.068Z,-5.82
2022-12-14T16:13:05.528Z,-5.84
2022-12-14T16:15:37.095Z,-5.87
2022-12-14T16:18:08.576Z,-5.90
2022-12-14T16:20:40.116Z,-5.91
2022-12-14T16:23:11.577Z,-5.90
2022-12-14T16:25:43.061Z,-5.90
2022-12-14T16:28:14.519Z,-5.89
2022-12-14T16:30:46.048Z,-5.90
2022-12-14T16:33:19.879Z,-5.89
2022-12-14T16:35:51.363Z,-5.76
2022-12-14T16:38:22.834Z,-5.79
2022-12-14T16:40:54.368Z,-5.82
2022-12-14T16:43:26.114Z,-5.84
2022-12-14T16:45:57.967Z,-5.87
2022-12-14T16:48:29.522Z,-5.86
2022-12-14T16:51:12.791Z,-5.88
2022-12-14T16:53:47.478Z,-5.91
2022-12-14T16:56:18.952Z,-5.95
2022-12-14T16:58:50.443Z,-5.95
2022-12-14T17:01:22.166Z,-6.01
2022-12-14T17:03:54.122Z,-6.05
2022-12-14T17:06:25.639Z,-6.07
2022-12-14T17:08:57.135Z,-6.07
2022-12-14T17:11:28.614Z,-6.11
2022-12-14T17:14:00.469Z,-6.14
2022-12-14T17:19:18.593Z,-6.23
2022-12-14T17:21:50.319Z,-6.23
2022-12-14T17:24:21.877Z,-6.26
2022-12-14T17:26:53.379Z,-6.23
2022-12-14T17:29:25.353Z,-6.24
2022-12-14T17:31:57.733Z,-6.27
2022-12-14T17:34:29.597Z,-6.27
2022-12-14T17:37:01.108Z,-6.31
2022-12-14T17:39:35.981Z,-6.37
2022-12-14T17:42:07.514Z,-6.44
2022-12-14T17:44:39.274Z,-6.48
2022-12-14T17:47:10.759Z,-6.56
2022-12-14T17:49:43.276Z,-6.62
2022-12-14T17:52:14.784Z,-6.61
2022-12-14T17:54:46.437Z,-6.62
2022-12-14T17:57:17.992Z,-6.63
2022-12-14T17:59:49.822Z,-6.69
2022-12-14T18:02:21.539Z,-6.69
2022-12-14T18:04:53.656Z,-6.71
2022-12-14T18:07:25.189Z,-6.75
2022-12-14T18:09:56.980Z,-6.78
2022-12-14T18:12:28.451Z,-6.82
2022-12-14T18:15:00.438Z,-6.83
2022-12-14T18:17:31.943Z,-6.83
2022-12-14T18:20:04.067Z,-6.86
2022-12-14T18:22:35.523Z,-6.91
2022-12-14T18:25:07.319Z,-6.93
2022-12-14T18:27:38.773Z,-6.95
2022-12-14T18:30:12.923Z,-6.98
2022-12-14T18:32:44.533Z,-7.01
2022-12-14T18:35:16.488Z,-7.02
2022-12-14T18:37:49.496Z,-7.03
2022-12-14T18:40:21.360Z,-7.08
2022-12-14T18:42:52.875Z,-7.08
2022-12-14T18:45:24.725Z,-7.11
2022-12-14T18:47:56.258Z,-7.10
2022-12-14T18:50:28.095Z,-7.15
2022-12-14T18:52:59.665Z,-7.16
2022-12-14T18:55:31.574Z,-7.17
2022-12-14T18:58:03.333Z,-7.18
2022-12-14T19:00:35.299Z,-7.18
2022-12-14T19:03:06.879Z,-7.21
2022-12-14T19:05:38.848Z,-7.21
2022-12-14T19:08:10.408Z,-7.21
2022-12-14T19:10:42.399Z,-7.26
2022-12-14T19:13:14.901Z,-7.32
2022-12-14T19:15:47.289Z,-7.34
2022-12-14T19:18:18.877Z,-7.37
2022-12-14T19:20:50.396Z,-7.39
2022-12-14T19:23:21.905Z,-7.40
2022-12-14T19:25:53.497Z,-7.42
2022-12-14T19:28:33.288Z,-7.42
2022-12-14T19:31:05.365Z,-7.46
2022-12-14T19:39:32.119Z,-7.52
2022-12-14T19:42:03.639Z,-7.57
2022-12-14T19:44:35.290Z,-7.57
2022-12-14T19:47:06.865Z,-7.58
2022-12-14T19:49:38.548Z,-7.58
2022-12-14T19:52:10.094Z,-7.59
2022-12-14T19:54:41.923Z,-7.59
2022-12-14T19:57:13.442Z,-7.59
2022-12-14T19:59:45.071Z,-7.59
2022-12-14T20:02:16.937Z,-7.59
2022-12-14T20:04:48.986Z,-7.62
2022-12-14T20:07:20.809Z,-7.63
2022-12-14T20:09:52.870Z,-7.65
2022-12-14T20:12:24.448Z,-7.67
2022-12-14T20:14:56.281Z,-7.67
2022-12-14T20:17:27.759Z,-7.68
2022-12-14T20:19:59.315Z,-9.39
2022-12-14T20:22:30.911Z,-7.69
2022-12-14T20:25:02.854Z,-7.67
2022-12-14T20:27:40.326Z,-7.70
2022-12-14T20:30:12.228Z,-7.73
2022-12-14T20:32:43.716Z,-7.75
2022-12-14T20:35:20.927Z,-7.74
2022-12-14T20:37:52.435Z,-7.74
2022-12-14T20:40:23.920Z,-7.77
2022-12-14T20:42:55.397Z,-7.77
2022-12-14T20:45:27.344Z,-7.78
2022-12-14T20:47:58.814Z,-7.81
2022-12-14T20:50:30.710Z,-7.82
2022-12-14T20:53:02.204Z,-7.83
2022-12-14T20:55:34.319Z,-7.87
2022-12-14T20:58:05.806Z,-7.87
2022-12-14T21:00:37.652Z,-7.87
2022-12-14T21:03:09.311Z,-7.89
2022-12-14T21:05:41.400Z,-7.90
2022-12-14T21:08:15.513Z,-7.91
2022-12-14T21:10:47.313Z,-7.93
2022-12-14T21:13:18.817Z,-7.96
2022-12-14T21:15:50.693Z,-7.98
2022-12-14T21:18:24.569Z,-7.99
2022-12-14T21:20:57.047Z,-7.98
2022-12-14T21:23:28.851Z,-8.00
2022-12-14T21:26:00.955Z,-8.02
2022-12-14T21:28:32.507Z,-8.04
2022-12-14T21:31:04.299Z,-8.05
2022-12-14T21:33:39.567Z,-8.04
2022-12-14T21:36:11.076Z,-8.28
2022-12-14T21:38:42.592Z,-8.05
2022-12-14T21:41:33.140Z,-8.05
2022-12-14T21:44:04.653Z,-8.11
2022-12-14T21:46:37.288Z,-8.14
2022-12-14T21:49:08.916Z,-8.17
2022-12-14T21:51:40.727Z,-8.19
2022-12-14T21:54:12.257Z,-8.19
2022-12-14T21:57:02.834Z,-8.20
2022-12-14T21:59:34.395Z,-8.21
2022-12-14T22:02:06.622Z,-8.24
2022-12-14T22:04:40.116Z,-8.31
2022-12-14T22:07:11.761Z,-8.31
2022-12-14T22:09:43.304Z,-8.33
2022-12-14T22:12:21.462Z,-8.39
2022-12-14T22:14:53.131Z,-8.39
2022-12-14T22:17:25.029Z,-8.40
2022-12-14T22:19:56.594Z,-8.42
2022-12-14T22:22:28.453Z,-8.45
2022-12-14T22:24:59.931Z,-8.46
2022-12-14T22:27:31.855Z,-8.45
2022-12-14T22:30:05.266Z,-8.45
2022-12-14T22:32:37.229Z,-8.47
2022-12-14T22:35:09.527Z,-8.49
2022-12-14T22:37:41.444Z,-8.53
2022-12-14T22:40:12.940Z,-8.56
2022-12-14T22:42:45.031Z,-8.60
2022-12-14T22:45:16.872Z,-8.63
2022-12-14T22:47:48.392Z,-8.63
2022-12-14T22:50:20.277Z,-8.63
2022-12-14T22:52:51.805Z,-8.64
2022-12-14T22:55:24.628Z,-8.64
2022-12-14T22:57:56.136Z,-8.65
2022-12-14T23:00:28.052Z,-8.65
2022-12-14T23:03:00.409Z,-8.66
2022-12-14T23:05:32.478Z,-8.66
2022-12-14T23:08:04.023Z,-8.66
2022-12-14T23:10:54.616Z,-8.66
2022-12-14T23:13:44.794Z,-8.67
2022-12-14T23:16:35.357Z,-8.67
2022-12-14T23:19:25.593Z,-8.71
2022-12-14T23:22:16.223Z,-8.73
2022-12-14T23:25:06.393Z,-8.75
2022-12-14T23:27:56.800Z,-8.75
2022-12-14T23:30:47.404Z,-8.76
2022-12-14T23:33:37.787Z,-8.75
2022-12-14T23:36:28.360Z,-8.79
2022-12-14T23:39:18.588Z,-8.78
2022-12-14T23:42:09.106Z,-8.79
2022-12-14T23:44:59.368Z,-8.79
2022-12-14T23:47:50.071Z,-8.80
2022-12-14T23:50:40.565Z,-8.81
2022-12-14T23:53:31.195Z,-8.82
2022-12-14T23:56:22.047Z,-8.86
2022-12-14T23:59:14.158Z,-8.86
